D/T METAR WX W/DIR W/SPE G/SPE TEMP DEWP
18/02/19 07:50 EGYE 180750Z 19010KT CAVOK ///// Q1012 BLU S (190°) 11.5mph 0°C 0°C
15/02/19 15:50 EGYE 151550Z 19010KT CAVOK ///// Q1023 BLU S (190°) 11.5mph 0°C 0°C
15/02/19 14:50 EGYE 151450Z 19011KT CAVOK ///// Q1023 BLU S (190°) 12.7mph 0°C 0°C
15/02/19 13:50 EGYE 151350Z 19012KT CAVOK ///// Q1024 BLU S (190°) 13.8mph 0°C 0°C
15/02/19 12:50 EGYE 151250Z 19013KT CAVOK ///// Q1024 BLU S (190°) 15.0mph 0°C 0°C
15/02/19 11:50 EGYE 151150Z 17010KT 9000 HZ FEW250 ///// Q1025 BLU HZ S (170°) 11.5mph 0°C 0°C
15/02/19 10:50 EGYE 151050Z 18006KT 9000 HZ SKC ///// Q1026 BLU HZ S (180°) 6.9mph 0°C 0°C
15/02/19 09:50 EGYE 150950Z 19005KT 7000 HZ SKC ///// Q1026 WHT HZ S (190°) 5.8mph 0°C 0°C
15/02/19 08:50 EGYE 150850Z 14006KT 4000 BR SKC ///// Q1026 GRN BR SE (140°) 6.9mph 0°C 0°C
15/02/19 07:50 EGYE 150750Z 17006KT 5000 BR SKC ///// Q1026 WHT BR S (170°) 6.9mph 0°C 0°C
14/02/19 15:50 EGYE 141550Z 17006KT CAVOK ///// Q1030 BLU S (170°) 6.9mph 0°C 0°C
14/02/19 13:50 EGYE 141350Z 14007KT CAVOK ///// Q1030 BLU SE (140°) 8.1mph 0°C 0°C
14/02/19 12:50 EGYE 141250Z 18008KT CAVOK ///// Q1031 BLU S (180°) 9.2mph 0°C 0°C
14/02/19 11:50 EGYE 141150Z 17007KT CAVOK ///// Q1031 BLU S (170°) 8.1mph 0°C 0°C
14/02/19 10:50 EGYE 141050Z 21008KT CAVOK ///// Q1031 BLU SSW (210°) 9.2mph 0°C 0°C
14/02/19 09:50 EGYE 140950Z 15007KT CAVOK ///// Q1031 BLU SSE (150°) 8.1mph 0°C 0°C
14/02/19 07:50 EGYE 140750Z 21008KT CAVOK ///// Q1031 BLU SSW (210°) 9.2mph 0°C 0°C
13/02/19 15:50 EGYE 131550Z 21011KT CAVOK ///// Q1029 BLU SSW (210°) 12.7mph 0°C 0°C
13/02/19 14:50 EGYE 131450Z 20015KT CAVOK ///// Q1029 BLU SSW (200°) 17.3mph 0°C 0°C
13/02/19 13:50 EGYE 131350Z 21011KT CAVOK ///// Q1030 BLU SSW (210°) 12.7mph 0°C 0°C
13/02/19 11:50 EGYE 131150Z 21015KT 9999 FEW018 BKN250 ///// Q1030 BLU SSW (210°) 17.3mph 0°C 0°C
13/02/19 10:50 EGYE 131050Z 22019KT 9999 FEW018 BKN250 ///// Q1030 BLU SW (220°) 21.9mph 0°C 0°C
13/02/19 09:50 EGYE 130950Z 23017KT 9999 FEW015 SCT020 ///// Q1030 WHT SW (230°) 19.6mph 0°C 0°C
13/02/19 08:50 EGYE 130850Z 22010KT 9999 FEW014 OVC020 ///// Q1030 WHT SW (220°) 11.5mph 0°C 0°C
13/02/19 07:50 EGYE 130750Z 23010KT 9999 OVC020 ///// Q1030 WHT SW (230°) 11.5mph 0°C 0°C
12/02/19 15:50 EGYE 121550Z 22014KT 9999 FEW015 BKN060 ///// Q1029 BLU SW (220°) 16.1mph 0°C 0°C
12/02/19 14:50 EGYE 121450Z 23012KT 9999 SCT015 BKN060 ///// Q1029 WHT SW (230°) 13.8mph 0°C 0°C
12/02/19 13:50 EGYE 121350Z 23014KT 9999 FEW025 SCT045 BKN100 ///// Q1029 BLU SW (230°) 16.1mph 0°C 0°C
12/02/19 12:50 EGYE 121250Z 23015KT 9999 BKN045 BKN100 ///// Q1029 BLU SW (230°) 17.3mph 0°C 0°C
12/02/19 11:50 EGYE 121150Z 24017KT 9999 FEW030 BKN120 ///// Q1030 BLU WSW (240°) 19.6mph 0°C 0°C
12/02/19 09:50 EGYE 120950Z 23012KT 9999 FEW040 SCT080 BKN200 ///// Q1030 BLU SW (230°) 13.8mph 0°C 0°C
12/02/19 08:50 EGYE 120850Z 24014KT CAVOK ///// Q1030 BLU WSW (240°) 16.1mph 0°C 0°C
12/02/19 07:50 EGYE 120750Z 22009KT CAVOK ///// Q1030 BLU SW (220°) 10.4mph 0°C 0°C
11/02/19 15:50 EGYE 111550Z 27003KT 9999 FEW015 SCT250 ///// Q1027 BLU W (270°) 3.5mph 0°C 0°C
11/02/19 14:50 EGYE 111450Z 29005KT 9999 FEW015 SCT250 ///// Q1027 BLU WNW (290°) 5.8mph 0°C 0°C
11/02/19 13:50 EGYE 111350Z 01005KT 9999 FEW015 SCT250 ///// Q1026 BLU N (10°) 5.8mph 0°C 0°C
11/02/19 12:50 EGYE 111250Z 31006KT 9999 FEW013 SCT250 ///// Q1026 BLU NW (310°) 6.9mph 0°C 0°C
11/02/19 11:50 EGYE 111150Z 32009KT 9999 FEW012 SCT250 ///// Q1025 BLU NW (320°) 10.4mph 0°C 0°C
11/02/19 10:50 EGYE 111050Z 31013KT 9999 FEW011 SCT035 ///// Q1023 BLU NW (310°) 15.0mph 0°C 0°C
11/02/19 09:50 EGYE 110950Z 30009KT 9999 FEW015 BKN035 ///// Q1022 BLU WNW (300°) 10.4mph 0°C 0°C
11/02/19 08:50 EGYE 110850Z 29010KT 9999 FEW020 BKN035 ///// Q1020 BLU WNW (290°) 11.5mph 0°C 0°C
11/02/19 07:50 EGYE 110750Z 27008KT 9999 BKN035 ///// Q1019 BLU W (270°) 9.2mph 0°C 0°C
7/02/19 15:50 EGYE 071550Z 26015KT 9999 FEW025 ///// Q1003 BLU W (260°) 17.3mph 0°C 0°C
7/02/19 14:50 EGYE 071450Z 26020G30KT 9999 SCT020 BKN040 ///// Q1002 WHT W (260°) 23.0mph 34.5mph 0°C 0°C
7/02/19 13:50 EGYE 071350Z 25023KT 9999 BKN020 BKN040 ///// Q1002 WHT WSW (250°) 26.5mph 0°C 0°C
7/02/19 12:50 EGYE 071250Z 26030KT 9999 BKN018 BKN050 //// Q1001 WHT W (260°) 34.5mph 0°C 0°C
7/02/19 11:50 EGYE 071150Z 26028G40KT 9999 BKN015 ///// Q1000 WHT W (260°) 32.2mph 46.0mph 0°C 0°C
7/02/19 10:50 EGYE 071050Z 26030G43KT 9999 BKN015 OVC022 ///// Q0998 WHT W (260°) 34.5mph 49.5mph 0°C 0°C
7/02/19 09:50 EGYE 070950Z 29029G41KT 9999 -RA BKN010 OVC020 ///// Q0997 GRN -RA WNW (290°) 33.4mph 47.2mph 0°C 0°C
7/02/19 08:50 EGYE 070850Z 25028G40KT 9999 -RA BKN015 BKN022 ///// Q0996 WHT -RA WSW (250°) 32.2mph 46.0mph 0°C 0°C
7/02/19 07:50 EGYE 070750Z 24029G44KT 9999 RA SCT013 OVC024 ///// Q0995 GRN RA WSW (240°) 33.4mph 50.6mph 0°C 0°C
6/02/19 15:50 EGYE 061550Z 20006KT CAVOK ///// Q1013 BLU SSW (200°) 6.9mph 0°C 0°C
6/02/19 13:50 EGYE 061350Z 25010KT CAVOK ///// Q1015 BLU WSW (250°) 11.5mph 0°C 0°C
6/02/19 12:50 EGYE 061250Z 23010KT 9999 FEW018 BKN250 ///// Q1016 BLU SW (230°) 11.5mph 0°C 0°C
6/02/19 11:50 EGYE 061150Z 25011KT 9999 FEW018 BKN250 ///// Q1016 BLU WSW (250°) 12.7mph 0°C 0°C
6/02/19 10:50 EGYE 061050Z 23009KT CAVOK ///// Q1017 BLU SW (230°) 10.4mph 0°C 0°C
6/02/19 09:50 EGYE 060950Z 23009KT CAVOK ///// Q1017 BLU SW (230°) 10.4mph 0°C 0°C
6/02/19 08:50 EGYE 060850Z 23009KT CAVOK ///// Q1017 BLU SW (230°) 10.4mph 0°C 0°C
6/02/19 07:50 EGYE 060750Z 23009KT CAVOK ///// Q1017 BLU SW (230°) 10.4mph 0°C 0°C
5/02/19 13:52 EGYE 051352Z 17011KT 8000 HZ BKN007 OVC009 ///// Q1021 GRN HZ S (170°) 12.7mph 0°C 0°C
5/02/19 12:50 EGYE 051250Z 16012KT 9999 BKN018 ///// Q1021 WHT SSE (160°) 13.8mph 0°C 0°C
5/02/19 10:50 EGYE 051050Z 17009KT 9999 FEW008 BKN020 ///// Q1023 WHT S (170°) 10.4mph 0°C 0°C
5/02/19 08:50 EGYE 050850Z 16009KT 9999 BKN025 BKN250 ///// Q1023 BLU SSE (160°) 10.4mph 0°C 0°C
4/02/19 15:50 EGYE 041550Z 27012KT 9999 FEW020 BKN250 ///// Q1016 BLU W (270°) 13.8mph 0°C 0°C
4/02/19 14:50 EGYE 041450Z 27014KT 9999 FEW020 SCT250 ///// Q1015 BLU W (270°) 16.1mph 0°C 0°C
4/02/19 13:50 EGYE 041350Z 25017KT 9999 SCT025 ///// Q1014 BLU WSW (250°) 19.6mph 0°C 0°C
4/02/19 12:50 EGYE 041250Z 26011KT 9999 FEW008 SCT020 BKN030 ///// Q1014 WHT W (260°) 12.7mph 0°C 0°C
4/02/19 11:44 EGYE 041144Z 24012KT 9999 FEW010 BKN030 ///// Q1013 BLU WSW (240°) 13.8mph 0°C 0°C
4/02/19 10:50 EGYE 041050Z 22019KT 9999 SCT007 BKN030 ///// Q1012 GRN SW (220°) 21.9mph 0°C 0°C
4/02/19 09:50 EGYE 040950Z 22014G27KT 9999 BKN007 OVC025 ///// Q1012 GRN SW (220°) 16.1mph 31.1mph 0°C 0°C
4/02/19 07:50 EGYE 040750Z 18018G28KT 9999 BKN010 OVC025 ///// Q1011 GRN S (180°) 20.7mph 32.2mph 0°C 0°C
1/02/19 15:50 EGYE 011550Z 35010KT 9999 FEW010 SCT040 BKN250 ///// Q0992 BLU N (350°) 11.5mph 0°C 0°C
1/02/19 14:50 EGYE 011450Z 01015KT 9999 SCT008 SCT250 ///// Q0991 GRN N (10°) 17.3mph 0°C 0°C
1/02/19 13:50 EGYE 011350Z 36016KT 9999 FEW010 BKN060 ///// Q0991 BLU N (360°) 18.4mph 0°C 0°C
1/02/19 12:50 EGYE 011250Z 01013KT 9999 FEW006 SCT060 ///// Q0991 BLU N (10°) 15.0mph 0°C 0°C
1/02/19 11:50 EGYE 011150Z 35009KT 9999 BKN040 ///// Q0991 BLU N (350°) 10.4mph 0°C 0°C
1/02/19 10:50 EGYE 011050Z 03011KT 9999 FEW025 BKN040 ///// Q0990 BLU NNE (30°) 12.7mph 0°C 0°C
1/02/19 09:50 EGYE 010950Z 01009KT 9999 FEW025 BKN040 ///// Q0990 BLU N (10°) 10.4mph 0°C 0°C
1/02/19 08:50 EGYE 010850Z 02011KT 8000 SHSN FEW020 BKN040 ///// Q0989 BLU SHSN NNE (20°) 12.7mph 0°C 0°C
1/02/19 07:50 EGYE 010750Z 03010KT 6000 BR SCT040 SCT250 ///// Q0989 WHT BR NNE (30°) 11.5mph 0°C 0°C
31/01/19 11:50 EGYE 311150Z 10007KT 2000 BR SCT008 ///// Q0992 YLO2 BR E (100°) 8.1mph 0°C 0°C
31/01/19 08:50 EGYE 310850Z 13014KT 0100 FZFG SKC ///// Q0993 BLACKRED FZFG SE (130°) 16.1mph 0°C 0°C
30/01/19 13:50 EGYE 301350Z 25007KT 9999 SCT015 ///// Q0994 WHT WSW (250°) 8.1mph 0°C 0°C
30/01/19 12:50 EGYE 301250Z 27006KT 9999 SCT008 ///// Q0994 GRN W (270°) 6.9mph 0°C 0°C
30/01/19 11:50 EGYE 301150Z 27010KT 9999 FEW035 ///// Q0994 BLU W (270°) 11.5mph 0°C 0°C
30/01/19 10:50 EGYE 301050Z 26011KT 9999 FEW045 ///// Q0994 BLACKBLU W (260°) 12.7mph 0°C 0°C
30/01/19 09:50 EGYE 300950Z 25010KT 9999 FEW035 ///// Q0994 BLACKBLU WSW (250°) 11.5mph 0°C 0°C
30/01/19 08:50 EGYE 300850Z 24010KT 9999 FEW030 ///// Q0993 BLACKBLU WSW (240°) 11.5mph 0°C 0°C
30/01/19 07:50 EGYE 300750Z 25009KT 9999 FEW080 ///// Q0993 BLACKBLU WSW (250°) 10.4mph 0°C 0°C
29/01/19 13:50 EGYE 291350Z 19010KT 9999 FEW015 BKN100 ///// Q0994 BLU S (190°) 11.5mph 0°C 0°C
29/01/19 12:50 EGYE 291250Z 20009KT 9999 FEW020 BKN100 ///// Q0995 BLU SSW (200°) 10.4mph 0°C 0°C
29/01/19 11:50 EGYE 291150Z 20011KT 9999 FEW020 BKN100 ///// Q0996 BLU SSW (200°) 12.7mph 0°C 0°C
29/01/19 10:50 EGYE 291050Z 19011KT 9999 FEW025 BKN250 ///// Q0997 BLU S (190°) 12.7mph 0°C 0°C
29/01/19 09:50 EGYE 290950Z 19009KT CAVOK ///// Q0998 BLU S (190°) 10.4mph 0°C 0°C
29/01/19 07:50 EGYE 290750Z 21010KT CAVOK ///// Q0999 BLU SSW (210°) 11.5mph 0°C 0°C
28/01/19 14:50 EGYE 281450Z 29014KT 9999 FEW030 ///// Q1007 BLU WNW (290°) 16.1mph 0°C 0°C
28/01/19 12:50 EGYE 281250Z 32014KT 9999 FEW040 ///// Q1006 BLU NW (320°) 16.1mph 0°C 0°C
28/01/19 10:50 EGYE 281050Z 31013KT 9999 FEW030 ///// Q1005 BLU NW (310°) 15.0mph 0°C 0°C
25/01/19 14:50 EGYE 251450Z 27018KT 9999 SCT015 SCT018 ///// Q1011 BLU W (270°) 20.7mph 0°C 0°C
25/01/19 13:50 EGYE 251350Z 26017KT 9999 BKN010 ///// Q1010 GRN W (260°) 19.6mph 0°C 0°C
25/01/19 11:50 EGYE 251150Z 26016KT 9999 FEW009 BKN050 ///// Q1010 BLU W (260°) 18.4mph 0°C 0°C
25/01/19 09:50 EGYE 250950Z 25017KT 9999 FEW005 BKN007 ///// Q1010 GRN WSW (250°) 19.6mph 0°C 0°C
25/01/19 08:50 EGYE 250850Z 25014KT 5000 BR SCT010 BKN060 ///// Q1010 GRN BR WSW (250°) 16.1mph 0°C 0°C
25/01/19 07:50 EGYE 250750Z 25013KT 4000 BR SCT002 BKN030 ///// Q1010 AMB BR WSW (250°) 15.0mph 0°C 0°C
24/01/19 13:50 EGYE 241350Z 29009KT 6000 HZ BKN050 ///// Q1010 WHT HZ WNW (290°) 10.4mph 0°C 0°C
24/01/19 12:50 EGYE 241250Z 27007KT 4800 BR FEW020 BKN080 ///// Q1010 GRN BR W (270°) 8.1mph 0°C 0°C
24/01/19 11:50 EGYE 241150Z 25009KT 4500 FEW050 BKN080 ///// Q1009 GRN WSW (250°) 10.4mph 0°C 0°C
24/01/19 08:50 EGYE 240850Z 26012KT 5000 BR FEW020 BKN080 ///// Q1009 BLACKWHT BR W (260°) 13.8mph 0°C 0°C
23/01/19 14:50 EGYE 231450Z 31008KT 9999 FEW020 ///// Q1004 BLU NW (310°) 9.2mph 0°C 0°C
23/01/19 13:50 EGYE 231350Z 32008KT 9999 FEW030 ///// Q1003 BLU NW (320°) 9.2mph 0°C 0°C
23/01/19 12:50 EGYE 231250Z 33010KT 9999 FEW018 ///// Q1003 BLU NNW (330°) 11.5mph 0°C 0°C
23/01/19 12:15 EGYE 231215Z 32011KT 9999 FEW010 ///// Q1003 BLACKBLU NW (320°) 12.7mph 0°C 0°C
23/01/19 11:50 EGYE 231150Z 32010KT 9999 SCT010 ///// Q1003 BLACKGRN NW (320°) 11.5mph 0°C 0°C
23/01/19 10:50 EGYE 231050Z 32010KT 9999 FEW012 ///// Q1002 BLACKBLU NW (320°) 11.5mph 0°C 0°C
23/01/19 09:50 EGYE 230950Z 31009KT 9999 FEW015 ///// Q1001 BLACKBLU NW (310°) 10.4mph 0°C 0°C
23/01/19 08:50 EGYE 230850Z 31008KT 8000 HZ FEW025 ///// Q1000 BLACKBLU HZ NW (310°) 9.2mph 0°C 0°C
22/01/19 14:50 EGYE 221450Z 23007KT 9999 FEW016CB BKN050 ///// Q0997 BLU SW (230°) 8.1mph 0°C 0°C
22/01/19 13:50 EGYE 221350Z 25010KT 9999 FEW020 SCT250 ///// Q0998 BLU WSW (250°) 11.5mph 0°C 0°C
22/01/19 11:50 EGYE 221150Z 25013KT 9999 FEW020 SCT040 ///// Q1000 BLU WSW (250°) 15.0mph 0°C 0°C
22/01/19 10:50 EGYE 221050Z 25013KT 9999 FEW020 ///// Q1000 BLU WSW (250°) 15.0mph 0°C 0°C
22/01/19 09:50 EGYE 220950Z 25012KT 9999 FEW020 Q1000 BLU WSW (250°) 13.8mph 0°C 0°C
22/01/19 07:50 EGYE 220750Z 25014KT 9999 FEW015 ///// Q1000 BLU WSW (250°) 16.1mph 0°C 0°C
21/01/19 14:50 EGYE 211450Z 22007KT 9999 FEW025 BKN250 ///// Q1017 BLU SW (220°) 8.1mph 0°C 0°C
21/01/19 13:50 EGYE 211350Z 22013KT 9999 FEW020 BKN250 ///// Q1018 BLU SW (220°) 15.0mph 0°C 0°C
21/01/19 12:50 EGYE 211250Z 22011KT 9999 FEW020 BKN200 ///// Q1017 BLU SW (220°) 12.7mph 0°C 0°C
21/01/19 11:50 EGYE 211150Z 22010KT 9999 FEW020 BKN250 ///// Q1020 BLU SW (220°) 11.5mph 0°C 0°C
21/01/19 10:50 EGYE 211050Z 22006KT 7000 HZ FEW020 BKN250 ///// Q1022 WHT HZ SW (220°) 6.9mph 0°C 0°C
21/01/19 09:50 EGYE 210950Z 21006KT 3500 BR FEW020 BKN250 ///// Q1022 YLO1 BR SSW (210°) 6.9mph 0°C 0°C
21/01/19 08:50 EGYE 210850Z 22004KT 2500 BR FEW020 ///// Q1023 YLO1 BR SW (220°) 4.6mph 0°C 0°C
18/01/19 14:50 EGYE 181450Z 13009KT CAVOK ///// Q1013 BLU SE (130°) 10.4mph 0°C 0°C
18/01/19 13:50 EGYE 181350Z 14011KT CAVOK ///// Q1014 BLU SE (140°) 12.7mph 0°C 0°C
18/01/19 12:50 EGYE 181250Z 14010KT CAVOK ///// Q1014 BLU SE (140°) 11.5mph 0°C 0°C
18/01/19 11:50 EGYE 181150Z 14010KT CAVOK ///// Q1015 BLU SE (140°) 11.5mph 0°C 0°C
18/01/19 10:50 EGYE 181050Z 16012KT CAVOK ///// Q1015 BLACKBLU SSE (160°) 13.8mph 0°C 0°C
18/01/19 09:50 EGYE 180950Z 17016KT CAVOK ///// Q1016 BLACKBLU S (170°) 18.4mph 0°C 0°C
18/01/19 08:50 EGYE 180850Z 15007KT CAVOK ///// Q1016 BLACKBLU SSE (150°) 8.1mph 0°C 0°C
18/01/19 07:50 EGYE 180750Z 17006KT CAVOK ///// Q1016 BLACKBLU S (170°) 6.9mph 0°C 0°C
17/01/19 14:50 EGYE 171450Z 32015KT 9999 FEW040 ///// Q1013 BLU NW (320°) 17.3mph 0°C 0°C
17/01/19 12:50 EGYE 171250Z 33018G28KT 9999 FEW020 ///// Q1011 BLU NNW (330°) 20.7mph 32.2mph 0°C 0°C
17/01/19 11:50 EGYE 171150Z 31021KT 9999 FEW020CB ///// Q1010 BLU NW (310°) 24.2mph 0°C 0°C
17/01/19 10:50 EGYE 171050Z 31020KT 9999 FEW015CB ///// Q1010 BLACKBLU NW (310°) 23.0mph 0°C 0°C
17/01/19 09:50 EGYE 170950Z 30015KT CAVOK ///// Q10009 BLACKBLU WNW (300°) 17.3mph 0°C 0°C
17/01/19 08:26 EGYE 170826Z 31015KT 9999 FEW040 ////// Q1007 BLACKBLU NW (310°) 17.3mph 0°C 0°C
17/01/19 07:50 EGYE 170750Z 31015KT 9999 FEW040 ///// Q1007 BLU NW (310°) 17.3mph 0°C 0°C